Time;durP1;ratioP1;P1;durP2;ratioP2;P2;SDS_P1;SDS_P2;PMS_P1;PMS_P2;Temp;Humidity;BMP_temperature;BMP_pressure;BME280_temperature;BME280_humidity;BME280_pressure;Samples;Min_cycle;Max_cycle;Signal;HPM_P1;HPM_P2
2022/09/02 00:00:15;;;;;;;8.70;6.45;;;12.00;99.90;;;;;;5033700;28;20041;-56
2022/09/02 00:02:43;;;;;;;10.02;6.72;;;11.90;99.90;;;;;;5050548;28;20128;-55
2022/09/02 00:05:12;;;;;;;8.48;7.57;;;11.90;99.90;;;;;;5034983;28;20037;-55
2022/09/02 00:07:39;;;;;;;7.75;6.90;;;11.90;99.90;;;;;;5035322;28;20409;-56
2022/09/02 00:10:08;;;;;;;11.00;8.68;;;11.90;99.90;;;;;;5035370;28;20048;-55
2022/09/02 00:12:37;;;;;;;8.20;7.40;;;11.90;99.90;;;;;;5035437;28;20126;-56
2022/09/02 00:15:06;;;;;;;8.55;7.68;;;11.90;99.90;;;;;;5023360;28;20084;-55
2022/09/02 00:17:33;;;;;;;9.25;8.00;;;11.90;99.90;;;;;;5029626;28;20037;-57
2022/09/02 00:20:01;;;;;;;22.83;8.93;;;11.80;99.90;;;;;;5013854;28;20706;-57
2022/09/02 00:22:29;;;;;;;10.70;8.32;;;11.80;99.90;;;;;;5014508;28;20152;-55
2022/09/02 00:24:57;;;;;;;9.27;8.00;;;11.80;99.90;;;;;;5012608;28;20037;-56
2022/09/02 00:27:26;;;;;;;7.63;6.93;;;11.80;99.90;;;;;;5013004;28;20267;-58
2022/09/02 00:29:54;;;;;;;8.10;7.30;;;11.80;99.90;;;;;;5013692;28;20115;-55
2022/09/02 00:32:22;;;;;;;8.15;7.35;;;11.80;99.90;;;;;;5013279;28;20041;-57
2022/09/02 00:34:50;;;;;;;8.15;6.65;;;11.80;99.90;;;;;;5029694;28;20915;-57
2022/09/02 00:37:18;;;;;;;10.30;7.90;;;11.70;99.90;;;;;;4996946;28;20084;-57
2022/09/02 00:39:46;;;;;;;9.57;7.50;;;11.70;99.90;;;;;;5014351;28;20746;-57
2022/09/02 00:42:15;;;;;;;12.05;7.28;;;11.80;99.90;;;;;;5029193;28;20135;-56
2022/09/02 00:44:43;;;;;;;9.15;7.57;;;11.70;99.90;;;;;;5012749;28;20144;-57
2022/09/02 00:47:10;;;;;;;7.55;6.85;;;11.70;99.90;;;;;;5015090;28;20147;-57
2022/09/02 00:49:41;;;;;;;10.30;8.40;;;11.70;99.90;;;;;;5013061;28;20503;-57
2022/09/02 00:52:15;;;;;;;10.90;7.03;;;11.60;99.90;;;;;;5015255;28;20037;-56
2022/09/02 00:54:48;;;;;;;7.38;6.57;;;11.60;99.90;;;;;;5017670;28;20047;-57
2022/09/02 00:57:20;;;;;;;8.65;6.43;;;11.60;99.90;;;;;;5033004;28;20044;-57
2022/09/02 01:00:10;;;;;;;10.52;6.63;;;11.60;99.90;;;;;;5032421;28;20053;-57
2022/09/02 01:02:40;;;;;;;7.10;6.30;;;11.60;99.90;;;;;;5034135;28;20037;-56
2022/09/02 01:05:12;;;;;;;7.20;6.50;;;11.50;99.90;;;;;;5016152;28;20044;-57
2022/09/02 01:07:42;;;;;;;8.57;7.00;;;11.50;99.90;;;;;;5031777;28;21710;-55
2022/09/02 01:10:15;;;;;;;7.15;6.45;;;11.50;99.90;;;;;;5016458;28;20206;-56
2022/09/02 01:12:43;;;;;;;8.82;6.93;;;11.50;99.90;;;;;;5031752;28;20032;-57
2022/09/02 01:15:12;;;;;;;7.35;6.65;;;11.40;99.90;;;;;;5032340;28;20099;-56
2022/09/02 01:17:48;;;;;;;7.05;6.35;;;11.40;99.90;;;;;;5032365;28;20045;-56
2022/09/02 01:20:21;;;;;;;10.52;6.65;;;11.40;99.90;;;;;;5032654;28;20041;-55
2022/09/02 01:22:53;;;;;;;16.33;7.38;;;11.30;99.90;;;;;;5032534;28;20060;-56
2022/09/02 01:25:24;;;;;;;7.07;6.38;;;11.30;99.90;;;;;;5032598;28;20041;-57
2022/09/02 01:27:57;;;;;;;7.45;6.60;;;11.30;99.90;;;;;;5033717;28;20133;-55
2022/09/02 01:30:26;;;;;;;6.93;6.22;;;11.20;99.90;;;;;;5032686;28;20048;-56
2022/09/02 01:32:54;;;;;;;8.20;7.40;;;11.20;99.90;;;;;;5032234;28;20057;-58
2022/09/02 01:35:23;;;;;;;8.82;7.18;;;11.20;99.90;;;;;;5033878;28;20045;-56
2022/09/02 01:37:55;;;;;;;7.72;6.93;;;11.10;99.90;;;;;;5019837;28;20044;-55
2022/09/02 01:40:26;;;;;;;9.48;7.47;;;11.10;99.90;;;;;;5003016;28;20789;-54
2022/09/02 01:43:08;;;;;;;11.07;7.28;;;11.10;99.90;;;;;;5035552;28;20045;-56
2022/09/02 01:45:38;;;;;;;11.05;7.40;;;11.00;99.90;;;;;;5033863;28;20049;-57
2022/09/02 01:48:08;;;;;;;8.82;7.22;;;11.00;99.90;;;;;;5037688;28;20112;-56
2022/09/02 01:50:38;;;;;;;9.88;7.90;;;11.00;99.90;;;;;;5036012;28;20053;-56
2022/09/02 01:53:14;;;;;;;8.15;7.15;;;11.00;99.90;;;;;;5035971;28;20306;-57
2022/09/02 01:55:43;;;;;;;8.45;7.35;;;11.00;99.90;;;;;;5034740;28;20118;-56
2022/09/02 01:58:11;;;;;;;8.10;7.28;;;10.90;99.90;;;;;;5019000;28;20048;-57
2022/09/02 02:00:39;;;;;;;9.57;7.90;;;10.90;99.90;;;;;;5036185;28;20045;-56
2022/09/02 02:03:07;;;;;;;8.48;7.00;;;10.90;99.90;;;;;;5036765;28;20045;-56
2022/09/02 02:05:36;;;;;;;10.38;8.00;;;10.90;99.90;;;;;;5019698;28;20153;-56
2022/09/02 02:08:05;;;;;;;15.82;8.48;;;10.80;99.90;;;;;;5036609;28;20044;-56
2022/09/02 02:10:34;;;;;;;8.57;7.55;;;10.80;99.90;;;;;;5037427;28;20055;-56
2022/09/02 02:13:02;;;;;;;9.00;7.68;;;10.80;99.90;;;;;;5019183;28;20110;-56
2022/09/02 02:15:35;;;;;;;10.35;9.05;;;10.80;99.90;;;;;;5037243;28;20072;-56
2022/09/02 02:18:04;;;;;;;10.68;7.72;;;10.80;99.90;;;;;;5004408;28;20045;-57
2022/09/02 02:20:32;;;;;;;10.70;8.90;;;10.90;99.90;;;;;;5036712;28;20055;-57
2022/09/02 02:23:02;;;;;;;9.88;7.72;;;10.80;99.90;;;;;;5019291;28;20072;-53
2022/09/02 02:25:31;;;;;;;7.57;6.63;;;10.80;99.90;;;;;;5035153;28;20055;-56
2022/09/02 02:27:59;;;;;;;7.70;6.97;;;10.80;99.90;;;;;;5037075;28;20037;-57
2022/09/02 02:30:30;;;;;;;8.25;7.43;;;10.80;99.90;;;;;;5036346;28;20045;-56
2022/09/02 02:33:00;;;;;;;8.50;7.60;;;10.80;99.90;;;;;;5019767;28;20091;-56
2022/09/02 02:35:27;;;;;;;8.02;6.97;;;10.80;99.90;;;;;;5035216;28;20830;-57
2022/09/02 02:37:56;;;;;;;7.65;6.95;;;10.80;99.90;;;;;;5036892;28;20044;-56
2022/09/02 02:40:30;;;;;;;7.55;6.68;;;10.80;99.90;;;;;;5036989;28;20041;-57
2022/09/02 02:42:59;;;;;;;7.78;7.07;;;10.80;99.90;;;;;;5051391;28;20123;-56
2022/09/02 02:45:28;;;;;;;12.52;7.38;;;10.80;99.90;;;;;;5037296;28;20139;-55
2022/09/02 02:47:56;;;;;;;8.90;7.32;;;10.70;99.90;;;;;;5014520;28;20040;-57
2022/09/02 02:50:25;;;;;;;7.10;6.40;;;10.70;99.90;;;;;;5035393;28;20111;-56
2022/09/02 02:52:55;;;;;;;7.90;7.10;;;10.70;99.90;;;;;;5036241;28;20080;-56
2022/09/02 02:55:25;;;;;;;8.90;7.85;;;10.70;99.90;;;;;;5034281;28;20132;-57
2022/09/02 02:57:55;;;;;;;10.88;7.35;;;10.60;99.90;;;;;;5002883;28;20076;-57
2022/09/02 03:00:27;;;;;;;7.70;6.50;;;10.60;99.90;;;;;;5015722;28;20049;-56
2022/09/02 03:03:03;;;;;;;9.07;7.20;;;10.60;99.90;;;;;;5039471;28;20515;-56
2022/09/02 03:05:32;;;;;;;8.68;7.05;;;10.60;99.90;;;;;;5018730;28;20719;-55
2022/09/02 03:08:03;;;;;;;7.40;6.70;;;10.50;99.90;;;;;;5018840;28;20580;-56
2022/09/02 03:10:33;;;;;;;7.32;6.63;;;10.50;99.90;;;;;;5030673;28;20127;-57
2022/09/02 03:13:02;;;;;;;8.63;7.03;;;10.60;99.90;;;;;;5021878;28;20053;-56
2022/09/02 03:15:30;;;;;;;7.05;6.13;;;10.50;99.90;;;;;;5029009;28;20055;-56
2022/09/02 03:17:58;;;;;;;6.93;6.22;;;10.50;99.90;;;;;;5034982;28;20053;-58
2022/09/02 03:20:26;;;;;;;7.18;6.47;;;10.60;99.90;;;;;;5050612;28;20060;-58
2022/09/02 03:22:59;;;;;;;7.72;6.25;;;10.50;99.90;;;;;;5035314;28;20144;-56
2022/09/02 03:25:29;;;;;;;9.32;6.75;;;10.50;99.90;;;;;;5036858;28;20041;-57
2022/09/02 03:28:14;;;;;;;6.53;5.90;;;10.50;99.90;;;;;;5021015;28;20543;-56
2022/09/02 03:30:45;;;;;;;12.48;6.88;;;10.50;99.90;;;;;;5036351;28;20087;-57
2022/09/02 03:33:15;;;;;;;6.60;5.95;;;10.60;99.90;;;;;;5034059;28;20076;-55
2022/09/02 03:35:46;;;;;;;8.82;6.75;;;10.50;99.90;;;;;;5036241;28;20041;-56
2022/09/02 03:38:14;;;;;;;8.90;6.80;;;10.50;99.90;;;;;;5034240;28;20060;-58
2022/09/02 03:40:44;;;;;;;17.02;7.80;;;10.40;99.90;;;;;;5035116;28;20103;-57
2022/09/02 03:43:13;;;;;;;9.52;7.05;;;10.40;99.90;;;;;;5033750;28;20061;-56
2022/09/02 03:45:42;;;;;;;7.65;6.85;;;10.30;99.90;;;;;;5027969;28;20046;-56
2022/09/02 03:48:13;;;;;;;7.28;6.55;;;10.30;99.90;;;;;;5029916;28;20749;-59
2022/09/02 03:50:46;;;;;;;7.57;6.78;;;10.20;99.90;;;;;;5034918;28;20052;-57
2022/09/02 03:53:18;;;;;;;8.55;7.25;;;10.20;99.90;;;;;;5035927;28;20040;-57
2022/09/02 03:55:53;;;;;;;7.60;6.80;;;10.20;99.90;;;;;;5032482;28;20040;-57
2022/09/02 03:58:24;;;;;;;9.30;6.85;;;10.20;99.90;;;;;;5033954;28;20055;-56
2022/09/02 04:00:55;;;;;;;9.02;6.72;;;10.20;99.90;;;;;;5033397;28;20044;-58
2022/09/02 04:03:24;;;;;;;16.00;7.18;;;10.20;99.90;;;;;;5034322;28;20079;-58
2022/09/02 04:05:53;;;;;;;7.28;6.50;;;10.20;99.90;;;;;;5033770;28;20055;-58
2022/09/02 04:08:24;;;;;;;8.55;7.28;;;10.20;99.90;;;;;;5034533;28;20065;-56
2022/09/02 04:10:55;;;;;;;8.02;6.60;;;10.20;99.90;;;;;;5049796;28;20059;-56
2022/09/02 04:13:25;;;;;;;9.18;7.22;;;10.20;99.90;;;;;;5029161;28;20851;-56
2022/09/02 04:15:53;;;;;;;7.70;6.95;;;10.20;99.90;;;;;;5031424;28;20111;-57
2022/09/02 04:18:29;;;;;;;7.95;7.15;;;10.20;99.90;;;;;;5032608;28;20045;-57
2022/09/02 04:20:59;;;;;;;8.77;7.65;;;10.20;99.90;;;;;;5017107;28;20462;-57
2022/09/02 04:23:28;;;;;;;8.00;7.20;;;10.10;99.90;;;;;;5034163;28;20037;-57
2022/09/02 04:25:57;;;;;;;7.38;6.65;;;10.20;99.90;;;;;;5035349;28;20044;-57
2022/09/02 04:28:25;;;;;;;7.40;6.60;;;10.10;99.90;;;;;;5017747;28;20124;-56
2022/09/02 04:30:55;;;;;;;7.13;6.43;;;10.20;99.90;;;;;;5032848;28;20067;-57
2022/09/02 04:33:24;;;;;;;8.05;7.05;;;10.20;99.90;;;;;;5033120;28;20049;-56
2022/09/02 04:35:53;;;;;;;6.03;5.43;;;10.20;99.90;;;;;;5033001;28;20140;-57
2022/09/02 04:38:23;;;;;;;7.07;6.25;;;10.20;99.90;;;;;;5033663;28;20156;-57
2022/09/02 04:40:51;;;;;;;8.00;6.30;;;10.20;99.90;;;;;;5033946;28;20041;-56
2022/09/02 04:43:20;;;;;;;6.85;6.15;;;10.20;99.90;;;;;;5033057;28;20045;-57
2022/09/02 04:45:49;;;;;;;7.82;6.78;;;10.20;99.90;;;;;;5049672;28;20950;-58
2022/09/02 04:48:19;;;;;;;6.85;6.15;;;10.10;99.90;;;;;;5011945;28;20364;-58
2022/09/02 04:50:48;;;;;;;7.80;6.25;;;10.10;99.90;;;;;;5013969;28;20134;-56
2022/09/02 04:53:19;;;;;;;7.20;6.50;;;10.10;99.90;;;;;;5013215;28;20053;-57
2022/09/02 04:55:47;;;;;;;6.97;6.18;;;10.10;99.90;;;;;;4996639;28;20148;-58
2022/09/02 04:58:20;;;;;;;7.68;6.88;;;10.10;99.90;;;;;;5025369;28;20080;-56
2022/09/02 05:00:49;;;;;;;10.63;7.07;;;10.10;99.90;;;;;;5032526;28;20040;-57
2022/09/02 05:03:18;;;;;;;8.07;6.20;;;10.00;99.90;;;;;;5033780;28;20116;-58
2022/09/02 05:05:56;;;;;;;9.07;7.90;;;10.10;99.90;;;;;;5029250;28;20037;-60
2022/09/02 05:08:24;;;;;;;;;;;10.10;99.90;;;;;;5022076;28;20037;-58
2022/09/02 05:10:55;;;;;;;8.00;7.20;;;10.10;99.90;;;;;;5032037;28;19925;-57
2022/09/02 05:13:24;;;;;;;7.53;6.75;;;10.10;99.90;;;;;;5015907;28;20052;-56
2022/09/02 05:15:53;;;;;;;6.57;5.97;;;10.10;99.90;;;;;;5017504;28;20047;-58
2022/09/02 05:18:22;;;;;;;10.57;7.30;;;10.10;99.90;;;;;;5033694;28;20136;-58
2022/09/02 05:20:51;;;;;;;9.50;7.53;;;10.10;99.90;;;;;;5016708;28;20040;-55
2022/09/02 05:23:19;;;;;;;7.45;6.65;;;10.10;99.90;;;;;;4999843;28;20048;-57
2022/09/02 05:25:48;;;;;;;8.90;7.75;;;10.10;99.90;;;;;;5032364;28;20049;-56
2022/09/02 05:28:17;;;;;;;9.90;8.25;;;10.10;99.90;;;;;;5032064;28;20048;-56
2022/09/02 05:30:46;;;;;;;10.02;7.43;;;10.20;99.90;;;;;;4999682;28;20037;-56
2022/09/02 05:33:16;;;;;;;8.07;7.28;;;10.20;99.90;;;;;;5048370;28;20056;-52
2022/09/02 05:35:48;;;;;;;12.02;8.35;;;10.20;99.90;;;;;;5032009;28;20040;-54
2022/09/02 05:38:17;;;;;;;9.80;7.57;;;10.30;99.90;;;;;;5033066;28;20060;-48
2022/09/02 05:40:47;;;;;;;8.02;7.22;;;10.40;99.90;;;;;;4999769;28;20106;-55
2022/09/02 05:43:17;;;;;;;9.90;7.72;;;10.50;99.90;;;;;;5016340;28;20534;-53
2022/09/02 05:45:47;;;;;;;9.60;8.07;;;10.60;99.90;;;;;;5015886;28;20045;-53
2022/09/02 05:51:05;;;;;;;9.80;8.75;;;10.70;99.90;;;;;;5031633;28;20135;-53
2022/09/02 05:53:34;;;;;;;13.88;9.35;;;10.80;99.90;;;;;;5033146;28;20076;-53
2022/09/02 05:56:04;;;;;;;12.48;10.65;;;11.00;99.90;;;;;;5033108;28;20056;-52
2022/09/02 05:58:33;;;;;;;12.55;10.95;;;11.00;99.90;;;;;;5030892;28;20075;-53
2022/09/02 06:01:11;;;;;;;11.82;10.25;;;11.20;99.90;;;;;;5033363;28;20041;-53
2022/09/02 06:03:39;;;;;;;12.10;10.55;;;11.20;99.90;;;;;;5031147;28;20040;-51
2022/09/02 06:06:09;;;;;;;12.95;11.02;;;11.30;99.90;;;;;;5012022;28;20778;-54
2022/09/02 06:08:40;;;;;;;14.25;10.45;;;11.40;99.90;;;;;;5031729;28;20818;-53
2022/09/02 06:11:11;;;;;;;15.88;12.27;;;11.50;99.90;;;;;;5028609;28;20543;-54
2022/09/02 06:13:42;;;;;;;20.52;14.27;;;11.60;99.90;;;;;;4995847;28;20041;-53
2022/09/02 06:16:15;;;;;;;18.75;14.20;;;11.70;99.90;;;;;;5013952;28;20033;-52
2022/09/02 06:18:48;;;;;;;21.33;15.75;;;11.70;99.90;;;;;;5012054;28;20060;-53
2022/09/02 06:21:19;;;;;;;21.02;15.75;;;11.80;99.90;;;;;;5012333;28;20065;-52
2022/09/02 06:23:51;;;;;;;20.33;13.80;;;11.90;99.90;;;;;;5032716;28;20041;-53
2022/09/02 06:26:20;;;;;;;23.17;14.85;;;11.90;99.90;;;;;;5014780;28;20045;-52
2022/09/02 06:28:49;;;;;;;20.80;16.80;;;12.00;99.90;;;;;;5032870;28;20077;-53
2022/09/02 06:31:20;;;;;;;21.75;16.65;;;12.10;99.90;;;;;;4983040;28;20695;-56
2022/09/02 06:33:55;;;;;;;19.17;15.15;;;12.20;99.90;;;;;;5015872;28;20676;-57
2022/09/02 06:36:29;;;;;;;17.92;14.40;;;12.30;99.90;;;;;;4984028;28;20125;-57
2022/09/02 06:39:01;;;;;;;22.20;15.27;;;12.30;99.90;;;;;;5015732;28;20081;-56
2022/09/02 06:41:33;;;;;;;21.73;16.25;;;12.40;99.90;;;;;;5016356;28;20107;-57
2022/09/02 06:44:07;;;;;;;24.02;17.88;;;12.50;99.90;;;;;;5015594;28;20044;-56
2022/09/02 06:46:45;;;;;;;22.13;15.05;;;12.60;99.90;;;;;;5015505;28;20045;-55
2022/09/02 06:49:15;;;;;;;24.20;15.48;;;12.60;99.90;;;;;;5025902;28;20037;-56
2022/09/02 06:51:49;;;;;;;16.88;13.82;;;12.80;99.90;;;;;;5036696;28;20045;-57
2022/09/02 06:54:20;;;;;;;20.15;14.30;;;12.80;99.90;;;;;;5019037;28;20056;-56
2022/09/02 06:56:53;;;;;;;20.58;14.52;;;12.90;99.90;;;;;;5036646;28;20903;-56
2022/09/02 06:59:25;;;;;;;21.33;15.40;;;13.00;99.90;;;;;;5034472;28;20045;-57
2022/09/02 07:01:57;;;;;;;21.80;17.00;;;13.10;99.90;;;;;;5019465;28;20590;-56
2022/09/02 07:07:18;;;;;;;24.05;17.13;;;13.20;99.90;;;;;;5016705;28;20152;-56
2022/09/02 07:09:54;;;;;;;19.00;15.10;;;13.40;99.90;;;;;;5015177;28;20105;-55
2022/09/02 07:12:25;;;;;;;18.25;15.63;;;13.50;99.90;;;;;;5034448;28;20044;-55
2022/09/02 07:14:59;;;;;;;20.77;15.48;;;13.70;99.90;;;;;;5035759;28;20044;-57
2022/09/02 07:17:33;;;;;;;20.40;16.33;;;13.90;99.90;;;;;;5049465;28;20127;-55
2022/09/02 07:20:06;;;;;;;17.98;14.82;;;14.00;99.90;;;;;;5036424;28;20049;-55
2022/09/02 07:22:42;;;;;;;22.43;15.37;;;14.20;99.90;;;;;;5035877;28;20683;-55
2022/09/02 07:25:15;;;;;;;20.42;15.43;;;14.30;99.90;;;;;;5034900;28;20406;-54
2022/09/02 07:27:46;;;;;;;19.88;15.00;;;14.30;99.90;;;;;;5035016;28;20134;-56
2022/09/02 07:30:14;;;;;;;15.77;12.60;;;14.40;99.90;;;;;;5035843;28;20056;-55
2022/09/02 07:32:45;;;;;;;20.55;14.60;;;14.50;99.90;;;;;;5050082;28;20859;-55
2022/09/02 07:35:15;;;;;;;15.65;13.70;;;14.50;99.90;;;;;;5049823;28;20415;-54
2022/09/02 07:37:45;;;;;;;16.42;12.40;;;14.50;99.90;;;;;;5034017;28;20056;-54
2022/09/02 07:40:14;;;;;;;17.92;16.08;;;14.60;99.90;;;;;;5034388;28;20087;-54
2022/09/02 07:42:43;;;;;;;16.05;14.23;;;14.60;99.90;;;;;;5017522;28;20140;-54
2022/09/02 07:45:12;;;;;;;16.20;13.20;;;14.60;99.90;;;;;;5035712;28;20086;-55
2022/09/02 07:47:42;;;;;;;17.48;14.35;;;14.60;99.90;;;;;;5034541;28;20044;-61
2022/09/02 07:50:13;;;;;;;23.83;16.20;;;14.70;99.90;;;;;;5025693;28;20038;-56
2022/09/02 07:52:56;;;;;;;14.93;11.80;;;14.80;99.90;;;;;;5015521;28;20674;-55
2022/09/02 07:55:29;;;;;;;18.85;14.02;;;14.90;99.90;;;;;;4998598;28;20076;-57
2022/09/02 07:58:00;;;;;;;16.67;14.15;;;15.20;99.90;;;;;;5016119;28;20049;-57
2022/09/02 08:00:29;;;;;;;15.63;13.63;;;15.60;99.90;;;;;;5034347;28;20072;-56
2022/09/02 08:03:03;;;;;;;18.23;14.35;;;16.30;99.90;;;;;;5034286;28;20064;-57
2022/09/02 08:05:39;;;;;;;16.05;14.30;;;17.00;99.90;;;;;;5034070;28;20938;-60
2022/09/02 08:08:08;;;;;;;17.63;13.90;;;17.90;99.90;;;;;;5017394;28;20047;-57
2022/09/02 08:10:38;;;;;;;17.15;12.85;;;18.30;99.90;;;;;;5029838;28;20037;-56
2022/09/02 08:13:06;;;;;;;14.98;12.75;;;18.60;99.90;;;;;;5023965;28;20079;-57
2022/09/02 08:15:35;;;;;;;12.57;11.30;;;19.20;99.90;;;;;;5014069;28;20160;-56
2022/09/02 08:18:05;;;;;;;18.30;12.93;;;19.50;99.90;;;;;;5013958;28;20610;-57
2022/09/02 08:20:39;;;;;;;13.05;11.38;;;19.90;99.90;;;;;;5015348;28;20893;-59
2022/09/02 08:23:08;;;;;;;18.02;12.45;;;20.20;99.90;;;;;;5013481;28;20049;-60
2022/09/02 08:25:52;;;;;;;19.38;12.18;;;20.30;99.90;;;;;;5013299;28;20089;-55
2022/09/02 08:28:21;;;;;;;12.38;11.13;;;20.40;99.90;;;;;;5014839;28;20046;-52
2022/09/02 08:30:51;;;;;;;15.98;12.93;;;20.70;99.90;;;;;;5013521;28;20136;-54
2022/09/02 08:33:20;;;;;;;13.27;11.43;;;20.90;99.90;;;;;;4997327;28;20455;-55
2022/09/02 08:35:49;;;;;;;12.35;11.05;;;21.00;99.90;;;;;;5013873;28;20159;-55
2022/09/02 08:38:18;;;;;;;11.70;10.40;;;21.00;99.90;;;;;;5030083;28;20041;-54
2022/09/02 08:40:46;;;;;;;15.10;11.43;;;21.00;99.90;;;;;;5015022;28;20123;-54
2022/09/02 08:43:30;;;;;;;15.10;11.38;;;21.00;99.90;;;;;;5013805;28;20041;-56
2022/09/02 08:46:04;;;;;;;16.00;10.35;;;21.00;99.90;;;;;;5028668;28;20048;-53
2022/09/02 08:49:09;;;;;;;14.82;10.95;;;21.20;99.90;;;;;;5014799;28;20691;-54
2022/09/02 08:51:46;;;;;;;11.00;9.90;;;21.40;99.90;;;;;;4990447;28;20057;-55
2022/09/02 08:54:33;;;;;;;10.30;9.30;;;21.40;99.90;;;;;;5017556;28;20194;-56
2022/09/02 08:57:02;;;;;;;11.57;10.35;;;21.60;99.90;;;;;;5034954;28;20049;-55
2022/09/02 08:59:31;;;;;;;14.05;10.43;;;21.60;99.90;;;;;;5034571;28;20073;-53
2022/09/02 09:02:36;;;;;;;9.75;8.77;;;21.60;99.90;;;;;;5049384;28;20780;-56
2022/09/02 09:05:54;;;;;;;12.55;9.73;;;21.80;99.90;;;;;;5020224;28;20045;-57
2022/09/02 09:08:30;;;;;;;11.10;9.65;;;22.00;99.90;;;;;;5049854;28;20463;-57
2022/09/02 09:11:09;;;;;;;11.77;9.63;;;22.20;99.90;;;;;;5033389;28;20041;-57
2022/09/02 09:13:46;;;;;;;11.07;9.93;;;22.50;99.90;;;;;;5049329;28;20045;-54
2022/09/02 09:16:25;;;;;;;10.15;9.07;;;22.70;99.90;;;;;;5031300;28;20048;-55
2022/09/02 09:19:24;;;;;;;10.98;9.57;;;22.80;99.90;;;;;;5015966;28;20801;-55
2022/09/02 09:21:54;;;;;;;9.95;8.82;;;22.80;99.90;;;;;;5030141;28;20938;-56
2022/09/02 09:24:27;;;;;;;9.82;8.82;;;22.90;99.90;;;;;;5013502;28;20053;-55
2022/09/02 09:26:56;;;;;;;12.93;8.65;;;23.00;99.90;;;;;;5013798;28;20045;-56
2022/09/02 09:29:25;;;;;;;10.80;9.70;;;23.20;99.90;;;;;;5012994;28;20096;-55
2022/09/02 09:31:57;;;;;;;13.52;8.02;;;23.30;99.90;;;;;;5013773;28;20053;-55
2022/09/02 09:34:51;;;;;;;9.82;8.80;;;23.30;99.90;;;;;;5012853;28;20140;-55
2022/09/02 09:37:42;;;;;;;9.02;8.05;;;23.60;99.90;;;;;;5013404;28;20135;-55
2022/09/02 09:40:19;;;;;;;8.70;7.28;;;23.80;99.90;;;;;;5012916;28;20544;-55
2022/09/02 09:42:58;;;;;;;9.40;7.03;;;23.90;99.90;;;;;;5014801;28;20064;-56
2022/09/02 09:46:00;;;;;;;8.20;7.45;;;23.80;99.90;;;;;;5028971;28;20049;-54
2022/09/02 09:48:30;;;;;;;12.52;6.63;;;23.80;99.90;;;;;;4969569;28;20049;-55
2022/09/02 09:50:58;;;;;;;10.43;8.07;;;23.70;99.90;;;;;;5012942;28;20045;-55
2022/09/02 09:53:31;;;;;;;8.88;7.95;;;23.80;99.90;;;;;;5015389;28;20042;-54
2022/09/02 09:56:05;;;;;;;12.38;7.85;;;24.00;99.90;;;;;;5013309;28;20050;-54
2022/09/02 09:58:35;;;;;;;8.70;7.75;;;24.10;99.90;;;;;;5016697;28;20119;-55
2022/09/02 10:01:27;;;;;;;8.02;6.85;;;24.30;99.90;;;;;;5034018;28;20099;-56
2022/09/02 10:03:57;;;;;;;10.00;8.23;;;24.40;99.90;;;;;;5016362;28;20048;-55
2022/09/02 10:06:29;;;;;;;10.52;7.45;;;24.50;99.90;;;;;;5017260;28;20083;-57
2022/09/02 10:09:02;;;;;;;11.18;7.72;;;24.60;99.90;;;;;;5030724;28;20056;-55
2022/09/02 10:11:34;;;;;;;12.10;8.90;;;24.80;99.90;;;;;;5005054;28;20088;-56
2022/09/02 10:14:09;;;;;;;9.63;8.63;;;25.00;99.90;;;;;;5020041;28;20049;-57
2022/09/02 10:16:55;;;;;;;9.70;6.63;;;25.10;99.50;;;;;;5036800;28;20048;-56
2022/09/02 10:19:52;;;;;;;9.43;6.50;;;25.10;98.00;;;;;;5052884;28;20048;-55
2022/09/02 10:22:39;;;;;;;;;;;25.00;98.80;;;;;;4998734;28;20154;-56
2022/09/02 10:26:04;;;;;;;9.50;5.47;;;24.80;99.90;;;;;;5050304;28;20399;-55
2022/09/02 10:29:07;;;;;;;9.25;8.35;;;24.80;99.90;;;;;;5052968;28;20554;-56
2022/09/02 10:32:08;;;;;;;10.80;7.05;;;24.90;99.90;;;;;;5019267;28;20041;-55
2022/09/02 10:34:49;;;;;;;11.70;7.80;;;25.10;99.90;;;;;;5052661;28;20033;-56
2022/09/02 10:37:24;;;;;;;9.13;7.05;;;25.30;98.80;;;;;;5036962;28;20049;-54
2022/09/02 10:40:18;;;;;;;7.75;6.97;;;25.40;95.50;;;;;;5004616;28;20049;-55
2022/09/02 10:42:50;;;;;;;9.27;6.55;;;25.50;97.50;;;;;;5033088;28;20045;-61
2022/09/02 10:45:46;;;;;;;8.77;5.97;;;25.60;97.50;;;;;;5034629;28;20041;-55
2022/09/02 10:48:39;;;;;;;7.30;6.60;;;25.80;96.60;;;;;;5035561;28;20148;-54
2022/09/02 10:51:32;;;;;;;11.18;6.85;;;25.90;94.60;;;;;;5037353;28;20052;-56
2022/09/02 10:54:24;;;;;;;8.32;7.13;;;26.10;91.90;;;;;;4994698;28;20103;-54
2022/09/02 10:57:10;;;;;;;7.57;6.15;;;26.00;88.70;;;;;;5016303;28;20119;-55
2022/09/02 10:59:41;;;;;;;10.65;5.95;;;25.90;93.50;;;;;;5017334;28;20493;-57
2022/09/02 11:02:21;;;;;;;6.13;5.45;;;26.00;93.90;;;;;;5017752;28;20068;-54
2022/09/02 11:04:52;;;;;;;6.40;5.80;;;26.10;93.40;;;;;;5047954;28;20051;-55
2022/09/02 11:07:37;;;;;;;7.65;6.95;;;26.30;91.10;;;;;;5035766;28;20583;-54
2022/09/02 11:10:21;;;;;;;7.55;6.72;;;26.30;91.30;;;;;;5032959;28;20045;-56
2022/09/02 11:13:19;;;;;;;7.53;6.82;;;26.40;94.80;;;;;;5049150;28;20076;-56
2022/09/02 11:15:56;;;;;;;6.13;5.53;;;26.50;92.50;;;;;;4972242;28;20041;-56
2022/09/02 11:18:50;;;;;;;6.10;5.50;;;26.50;92.50;;;;;;4970486;28;20197;-56
2022/09/02 11:21:40;;;;;;;7.68;6.53;;;26.70;88.10;;;;;;4968681;28;20061;-56
2022/09/02 11:24:30;;;;;;;7.20;6.50;;;26.70;89.50;;;;;;5002111;28;20064;-55
2022/09/02 11:27:14;;;;;;;7.15;6.05;;;26.80;91.30;;;;;;4999586;28;20829;-54
2022/09/02 11:30:12;;;;;;;6.38;5.25;;;26.80;91.40;;;;;;5029804;28;20582;-55
2022/09/02 11:32:59;;;;;;;7.47;5.72;;;26.90;90.20;;;;;;5015337;28;20030;-54
2022/09/02 11:35:31;;;;;;;;;;;27.00;90.10;;;;;;5018246;28;20142;-55
2022/09/02 11:38:00;;;;;;;5.63;5.03;;;27.10;85.20;;;;;;5014912;28;19925;-55
2022/09/02 11:41:00;;;;;;;10.05;5.70;;;27.10;87.70;;;;;;5031067;28;20045;-56
2022/09/02 11:43:55;;;;;;;9.88;6.93;;;27.20;85.20;;;;;;5014177;28;20048;-55
2022/09/02 11:46:26;;;;;;;7.85;5.97;;;27.20;81.70;;;;;;5014403;28;20041;-52
2022/09/02 11:49:28;;;;;;;7.50;5.85;;;27.20;80.60;;;;;;5030209;28;20056;-56
2022/09/02 11:52:18;;;;;;;6.72;4.88;;;27.10;82.70;;;;;;5030825;28;20500;-55
2022/09/02 11:54:51;;;;;;;7.45;6.38;;;27.00;80.90;;;;;;5010556;28;20688;-55
2022/09/02 11:57:27;;;;;;;9.02;6.18;;;27.00;84.20;;;;;;5034074;28;20783;-55
2022/09/02 11:59:55;;;;;;;14.77;7.57;;;27.00;84.80;;;;;;5033150;28;20037;-57
2022/09/02 12:02:38;;;;;;;8.65;6.82;;;26.80;83.90;;;;;;5050247;28;20999;-55
2022/09/02 12:05:29;;;;;;;6.13;5.63;;;26.80;88.40;;;;;;5029383;28;20380;-55
2022/09/02 12:08:03;;;;;;;9.80;6.28;;;26.70;90.00;;;;;;5050662;28;20041;-55
2022/09/02 12:10:42;;;;;;;6.60;5.90;;;26.90;89.30;;;;;;5017265;28;20056;-56
2022/09/02 12:13:42;;;;;;;5.90;4.85;;;27.00;86.70;;;;;;5035328;28;20071;-54
2022/09/02 12:16:20;;;;;;;7.68;6.88;;;27.10;84.40;;;;;;5014004;28;20055;-55
2022/09/02 12:18:57;;;;;;;7.68;6.88;;;27.10;87.00;;;;;;5030100;28;20049;-57
2022/09/02 12:21:27;;;;;;;6.97;6.25;;;27.10;86.30;;;;;;5030054;28;20137;-59
2022/09/02 12:23:56;;;;;;;5.45;4.95;;;27.10;86.90;;;;;;4997535;28;20049;-57
2022/09/02 12:26:36;;;;;;;6.50;5.90;;;27.20;84.00;;;;;;5030098;28;20049;-56
2022/09/02 12:29:23;;;;;;;5.85;5.35;;;27.20;79.90;;;;;;5014836;28;20065;-58
2022/09/02 12:31:52;;;;;;;6.75;6.05;;;27.30;80.80;;;;;;5014686;28;20049;-56
2022/09/02 12:34:23;;;;;;;5.90;5.30;;;27.40;75.20;;;;;;5029428;28;20058;-57
2022/09/02 12:36:56;;;;;;;10.35;5.35;;;27.40;79.00;;;;;;5030048;28;20904;-57
2022/09/02 12:39:26;;;;;;;6.82;6.13;;;27.50;79.90;;;;;;4996433;28;20049;-58
2022/09/02 12:42:06;;;;;;;6.78;5.40;;;27.50;77.70;;;;;;5025397;28;20041;-57
2022/09/02 12:45:05;;;;;;;6.40;5.55;;;27.50;75.00;;;;;;5032999;28;20052;-57
2022/09/02 12:47:38;;;;;;;7.05;5.55;;;27.60;75.90;;;;;;5034166;28;20041;-55
2022/09/02 12:50:21;;;;;;;5.32;4.60;;;27.70;76.30;;;;;;5039083;28;20193;-56
2022/09/02 12:53:06;;;;;;;4.95;4.50;;;27.60;76.20;;;;;;5032992;28;20138;-56
2022/09/02 12:55:38;;;;;;;6.25;4.32;;;27.60;77.50;;;;;;5035647;28;20038;-59
2022/09/02 12:58:14;;;;;;;8.10;5.35;;;27.60;75.50;;;;;;5012712;28;20527;-57
2022/09/02 13:00:46;;;;;;;5.88;4.03;;;27.60;75.90;;;;;;5029429;28;20597;-58
2022/09/02 13:03:49;;;;;;;9.55;5.70;;;27.60;76.10;;;;;;5034616;28;20044;-56
2022/09/02 13:06:40;;;;;;;4.20;3.70;;;27.50;76.00;;;;;;5023140;28;20338;-57
2022/09/02 13:09:49;;;;;;;6.40;5.80;;;27.50;73.60;;;;;;5020006;28;20045;-58
2022/09/02 13:12:38;;;;;;;12.02;5.55;;;27.60;72.10;;;;;;5033297;28;20114;-58
2022/09/02 13:15:35;;;;;;;6.50;5.90;;;27.50;74.80;;;;;;5022121;28;20100;-56
2022/09/02 13:18:40;;;;;;;5.72;4.55;;;27.50;72.90;;;;;;5028877;28;20048;-56
2022/09/02 13:21:30;;;;;;;11.60;5.80;;;27.50;73.90;;;;;;5014155;28;20140;-57
2022/09/02 13:24:16;;;;;;;9.00;5.90;;;27.40;74.90;;;;;;5013558;28;20512;-57